sensor_id;sensor_type;location;lat;lon;timestamp;pressure;altitude;pressure_sealevel;temperature;humidity
69574;BME280;62840;52.366;5.980;2023-08-21T00:01:47;102251.00;;;17.82;67.05
69574;BME280;62840;52.366;5.980;2023-08-21T00:04:13;102245.88;;;17.79;67.19
69574;BME280;62840;52.366;5.980;2023-08-21T00:06:39;102258.94;;;17.73;67.09
69574;BME280;62840;52.366;5.980;2023-08-21T00:09:07;102259.34;;;17.69;67.18
69574;BME280;62840;52.366;5.980;2023-08-21T00:11:33;102255.34;;;17.63;67.12
69574;BME280;62840;52.366;5.980;2023-08-21T00:13:58;102257.59;;;17.58;67.46
69574;BME280;62840;52.366;5.980;2023-08-21T00:16:24;102268.81;;;17.54;67.73
69574;BME280;62840;52.366;5.980;2023-08-21T00:18:50;102264.56;;;17.51;67.70
69574;BME280;62840;52.366;5.980;2023-08-21T00:21:16;102266.53;;;17.49;67.75
69574;BME280;62840;52.366;5.980;2023-08-21T00:23:41;102272.91;;;17.48;67.72
69574;BME280;62840;52.366;5.980;2023-08-21T00:26:10;102271.22;;;17.47;67.83
69574;BME280;62840;52.366;5.980;2023-08-21T00:28:35;102279.28;;;17.47;67.71
69574;BME280;62840;52.366;5.980;2023-08-21T00:31:01;102274.16;;;17.44;67.77
69574;BME280;62840;52.366;5.980;2023-08-21T00:33:27;102264.50;;;17.41;67.60
69574;BME280;62840;52.366;5.980;2023-08-21T00:35:53;102261.09;;;17.39;68.03
69574;BME280;62840;52.366;5.980;2023-08-21T00:38:19;102267.34;;;17.40;67.92
69574;BME280;62840;52.366;5.980;2023-08-21T00:40:45;102268.19;;;17.40;67.76
69574;BME280;62840;52.366;5.980;2023-08-21T00:43:13;102263.94;;;17.38;67.91
69574;BME280;62840;52.366;5.980;2023-08-21T00:45:40;102270.31;;;17.37;67.85
69574;BME280;62840;52.366;5.980;2023-08-21T00:48:08;102263.34;;;17.34;67.96
69574;BME280;62840;52.366;5.980;2023-08-21T00:50:35;102259.94;;;17.32;67.86
69574;BME280;62840;52.366;5.980;2023-08-21T00:53:02;102256.38;;;17.31;68.24
69574;BME280;62840;52.366;5.980;2023-08-21T00:55:28;102260.06;;;17.30;67.82
69574;BME280;62840;52.366;5.980;2023-08-21T00:57:54;102257.34;;;17.30;68.08
69574;BME280;62840;52.366;5.980;2023-08-21T01:00:24;102248.59;;;17.28;67.78
69574;BME280;62840;52.366;5.980;2023-08-21T01:02:55;102240.31;;;17.20;67.83
69574;BME280;62840;52.366;5.980;2023-08-21T01:05:22;102245.41;;;17.23;68.01
69574;BME280;62840;52.366;5.980;2023-08-21T01:07:52;102247.41;;;17.21;68.17
69574;BME280;62840;52.366;5.980;2023-08-21T01:10:35;102250.38;;;17.18;68.34
69574;BME280;62840;52.366;5.980;2023-08-21T01:13:19;102246.22;;;17.14;67.96
69574;BME280;62840;52.366;5.980;2023-08-21T01:15:55;102251.91;;;17.11;68.23
69574;BME280;62840;52.366;5.980;2023-08-21T01:18:22;102258.44;;;17.08;68.58
69574;BME280;62840;52.366;5.980;2023-08-21T01:20:51;102264.94;;;17.06;68.17
69574;BME280;62840;52.366;5.980;2023-08-21T01:23:33;102250.75;;;17.04;68.21
69574;BME280;62840;52.366;5.980;2023-08-21T01:26:00;102252.72;;;17.02;68.52
69574;BME280;62840;52.366;5.980;2023-08-21T01:28:25;102253.69;;;17.01;68.35
69574;BME280;62840;52.366;5.980;2023-08-21T01:30:59;102253.97;;;16.98;68.13
69574;BME280;62840;52.366;5.980;2023-08-21T01:33:33;102254.25;;;16.95;68.05
69574;BME280;62840;52.366;5.980;2023-08-21T01:36:04;102262.59;;;16.92;68.33
69574;BME280;62840;52.366;5.980;2023-08-21T01:38:33;102256.47;;;16.89;68.07
69574;BME280;62840;52.366;5.980;2023-08-21T01:40:59;102259.44;;;16.86;68.26
69574;BME280;62840;52.366;5.980;2023-08-21T01:43:25;102261.41;;;16.84;68.34
69574;BME280;62840;52.366;5.980;2023-08-21T01:45:50;102259.72;;;16.83;68.39
69574;BME280;62840;52.366;5.980;2023-08-21T01:48:16;102274.16;;;16.82;68.10
69574;BME280;62840;52.366;5.980;2023-08-21T01:50:42;102270.72;;;16.80;68.22
69574;BME280;62840;52.366;5.980;2023-08-21T01:53:07;102263.63;;;16.79;68.44
69574;BME280;62840;52.366;5.980;2023-08-21T01:55:36;102268.41;;;16.76;68.41
69574;BME280;62840;52.366;5.980;2023-08-21T01:58:02;102255.94;;;16.75;68.07
69574;BME280;62840;52.366;5.980;2023-08-21T02:00:27;102262.47;;;16.72;68.45
69574;BME280;62840;52.366;5.980;2023-08-21T02:02:53;102261.47;;;16.73;68.75
69574;BME280;62840;52.366;5.980;2023-08-21T02:05:19;102262.47;;;16.72;68.24
69574;BME280;62840;52.366;5.980;2023-08-21T02:07:44;102260.75;;;16.71;68.61
69574;BME280;62840;52.366;5.980;2023-08-21T02:10:10;102259.03;;;16.70;68.61
69574;BME280;62840;52.366;5.980;2023-08-21T02:12:39;102261.88;;;16.68;68.80
69574;BME280;62840;52.366;5.980;2023-08-21T02:15:06;102258.31;;;16.68;68.21
69574;BME280;62840;52.366;5.980;2023-08-21T02:17:32;102257.59;;;16.66;68.71
69574;BME280;62840;52.366;5.980;2023-08-21T02:19:58;102264.94;;;16.64;68.25
69574;BME280;62840;52.366;5.980;2023-08-21T02:22:24;102261.53;;;16.62;68.40
69574;BME280;62840;52.366;5.980;2023-08-21T02:24:50;102261.81;;;16.59;68.20
69574;BME280;62840;52.366;5.980;2023-08-21T02:27:15;102262.06;;;16.56;68.26
69574;BME280;62840;52.366;5.980;2023-08-21T02:29:44;102259.63;;;16.53;68.30
69574;BME280;62840;52.366;5.980;2023-08-21T02:32:09;102255.22;;;16.52;68.69
69574;BME280;62840;52.366;5.980;2023-08-21T02:34:35;102257.22;;;16.50;68.36
69574;BME280;62840;52.366;5.980;2023-08-21T02:37:01;102257.47;;;16.46;68.54
69574;BME280;62840;52.366;5.980;2023-08-21T02:39:28;102264.81;;;16.44;68.65
69574;BME280;62840;52.366;5.980;2023-08-21T02:41:54;102257.72;;;16.43;68.86
69574;BME280;62840;52.366;5.980;2023-08-21T02:44:19;102252.34;;;16.43;68.94
69574;BME280;62840;52.366;5.980;2023-08-21T02:46:48;102256.00;;;16.42;68.63
69574;BME280;62840;52.366;5.980;2023-08-21T02:49:13;102264.06;;;16.42;68.79
69574;BME280;62840;52.366;5.980;2023-08-21T02:51:39;102275.84;;;16.41;68.57
69574;BME280;62840;52.366;5.980;2023-08-21T02:54:05;102269.63;;;16.41;68.74
69574;BME280;62840;52.366;5.980;2023-08-21T02:56:31;102257.97;;;16.40;68.95
69574;BME280;62840;52.366;5.980;2023-08-21T02:58:57;102265.06;;;16.41;68.80
69574;BME280;62840;52.366;5.980;2023-08-21T03:01:22;102267.03;;;16.39;69.11
69574;BME280;62840;52.366;5.980;2023-08-21T03:03:51;102269.00;;;16.37;68.78
69574;BME280;62840;52.366;5.980;2023-08-21T03:06:17;102258.25;;;16.37;68.74
69574;BME280;62840;52.366;5.980;2023-08-21T03:08:42;102263.63;;;16.37;68.73
69574;BME280;62840;52.366;5.980;2023-08-21T03:11:08;102259.09;;;16.38;68.59
69574;BME280;62840;52.366;5.980;2023-08-21T03:13:34;102265.47;;;16.37;68.79
69574;BME280;62840;52.366;5.980;2023-08-21T03:15:59;102265.59;;;16.35;69.02
69574;BME280;62840;52.366;5.980;2023-08-21T03:18:29;102267.31;;;16.36;69.09
69574;BME280;62840;52.366;5.980;2023-08-21T03:20:59;102270.75;;;16.38;68.74
69574;BME280;62840;52.366;5.980;2023-08-21T03:23:25;102266.19;;;16.39;68.92
69574;BME280;62840;52.366;5.980;2023-08-21T03:25:52;102267.03;;;16.39;69.08
69574;BME280;62840;52.366;5.980;2023-08-21T03:28:17;102260.66;;;16.40;69.10
69574;BME280;62840;52.366;5.980;2023-08-21T03:30:43;102263.34;;;16.40;69.16
69574;BME280;62840;52.366;5.980;2023-08-21T03:33:09;102268.03;;;16.38;69.03
69574;BME280;62840;52.366;5.980;2023-08-21T03:35:35;102267.03;;;16.39;69.24
69574;BME280;62840;52.366;5.980;2023-08-21T03:38:03;102261.66;;;16.39;69.30
69574;BME280;62840;52.366;5.980;2023-08-21T03:40:29;102265.06;;;16.41;69.24
69574;BME280;62840;52.366;5.980;2023-08-21T03:42:55;102261.38;;;16.42;69.43
69574;BME280;62840;52.366;5.980;2023-08-21T03:45:20;102256.00;;;16.42;69.21
69574;BME280;62840;52.366;5.980;2023-08-21T03:47:46;102252.34;;;16.43;69.02
69574;BME280;62840;52.366;5.980;2023-08-21T03:50:12;102252.34;;;16.43;69.19
69574;BME280;62840;52.366;5.980;2023-08-21T03:52:37;102259.41;;;16.44;69.46
69574;BME280;62840;52.366;5.980;2023-08-21T03:55:06;102249.78;;;16.42;69.23
69574;BME280;62840;52.366;5.980;2023-08-21T03:57:32;102249.78;;;16.42;69.33
69574;BME280;62840;52.366;5.980;2023-08-21T03:59:58;102247.19;;;16.40;69.34
69574;BME280;62840;52.366;5.980;2023-08-21T04:02:24;102240.00;;;16.41;69.61
69574;BME280;62840;52.366;5.980;2023-08-21T04:04:50;102245.22;;;16.42;69.30
69574;BME280;62840;52.366;5.980;2023-08-21T04:07:15;102248.94;;;16.41;69.08
69574;BME280;62840;52.366;5.980;2023-08-21T04:09:41;102256.28;;;16.39;69.59
69574;BME280;62840;52.366;5.980;2023-08-21T04:12:09;102255.53;;;16.37;69.27
69574;BME280;62840;52.366;5.980;2023-08-21T04:14:35;102252.13;;;16.35;69.39
69574;BME280;62840;52.366;5.980;2023-08-21T04:17:01;102253.25;;;16.33;69.34
69574;BME280;62840;52.366;5.980;2023-08-21T04:19:27;102251.69;;;16.30;69.47
69574;BME280;62840;52.366;5.980;2023-08-21T04:21:53;102260.72;;;16.29;69.45
69574;BME280;62840;52.366;5.980;2023-08-21T04:24:18;102258.03;;;16.29;69.58
69574;BME280;62840;52.366;5.980;2023-08-21T04:26:44;102260.72;;;16.29;69.60
69574;BME280;62840;52.366;5.980;2023-08-21T04:29:12;102268.78;;;16.29;69.62
69574;BME280;62840;52.366;5.980;2023-08-21T04:31:38;102269.78;;;16.28;69.65
69574;BME280;62840;52.366;5.980;2023-08-21T04:34:04;102277.13;;;16.26;69.27
69574;BME280;62840;52.366;5.980;2023-08-21T04:36:30;102270.06;;;16.25;69.54
69574;BME280;62840;52.366;5.980;2023-08-21T04:38:55;102273.72;;;16.24;69.33
69574;BME280;62840;52.366;5.980;2023-08-21T04:41:21;102270.06;;;16.25;69.57
69574;BME280;62840;52.366;5.980;2023-08-21T04:43:47;102270.06;;;16.25;69.35
69574;BME280;62840;52.366;5.980;2023-08-21T04:46:15;102270.06;;;16.25;69.19
69574;BME280;62840;52.366;5.980;2023-08-21T04:48:41;102279.09;;;16.24;69.30
69574;BME280;62840;52.366;5.980;2023-08-21T04:51:06;102270.31;;;16.22;69.48
69574;BME280;62840;52.366;5.980;2023-08-21T04:53:32;102267.75;;;16.20;69.51
69574;BME280;62840;52.366;5.980;2023-08-21T04:55:58;102277.66;;;16.20;69.70
69574;BME280;62840;52.366;5.980;2023-08-21T04:58:24;102278.53;;;16.20;69.77
69574;BME280;62840;52.366;5.980;2023-08-21T05:00:50;102281.06;;;16.22;69.67
69574;BME280;62840;52.366;5.980;2023-08-21T05:03:18;102281.06;;;16.22;69.51
69574;BME280;62840;52.366;5.980;2023-08-21T05:05:51;102281.06;;;16.22;69.51
69574;BME280;62840;52.366;5.980;2023-08-21T05:08:18;102284.50;;;16.24;69.49
69574;BME280;62840;52.366;5.980;2023-08-21T05:10:43;102283.38;;;16.26;69.74
69574;BME280;62840;52.366;5.980;2023-08-21T05:13:09;102290.34;;;16.29;69.80
69574;BME280;62840;52.366;5.980;2023-08-21T05:15:35;102285.69;;;16.31;69.96
69574;BME280;62840;52.366;5.980;2023-08-21T05:18:00;102282.00;;;16.32;69.58
69574;BME280;62840;52.366;5.980;2023-08-21T05:20:29;102282.00;;;16.32;69.77
69574;BME280;62840;52.366;5.980;2023-08-21T05:22:55;102292.78;;;16.32;69.75
69574;BME280;62840;52.366;5.980;2023-08-21T05:25:20;102294.47;;;16.33;69.90
69574;BME280;62840;52.366;5.980;2023-08-21T05:27:46;102291.66;;;16.35;69.57
69574;BME280;62840;52.366;5.980;2023-08-21T05:30:12;102301.31;;;16.37;70.01
69574;BME280;62840;52.366;5.980;2023-08-21T05:32:38;102303.06;;;16.38;69.84
69574;BME280;62840;52.366;5.980;2023-08-21T05:35:05;102300.22;;;16.40;69.92
69574;BME280;62840;52.366;5.980;2023-08-21T05:37:33;102299.09;;;16.42;69.82
69574;BME280;62840;52.366;5.980;2023-08-21T05:39:59;102295.44;;;16.43;69.91
69574;BME280;62840;52.366;5.980;2023-08-21T05:42:24;102296.28;;;16.44;69.73
69574;BME280;62840;52.366;5.980;2023-08-21T05:44:50;102306.03;;;16.45;69.63
69574;BME280;62840;52.366;5.980;2023-08-21T05:47:16;102292.47;;;16.46;69.73
69574;BME280;62840;52.366;5.980;2023-08-21T05:49:42;102301.16;;;16.50;69.90
69574;BME280;62840;52.366;5.980;2023-08-21T05:52:08;102302.59;;;16.54;69.86
69574;BME280;62840;52.366;5.980;2023-08-21T05:54:37;102301.50;;;16.57;70.22
69574;BME280;62840;52.366;5.980;2023-08-21T05:57:03;102302.94;;;16.61;70.00
69574;BME280;62840;52.366;5.980;2023-08-21T05:59:31;102306.31;;;16.63;69.86
69574;BME280;62840;52.366;5.980;2023-08-21T06:01:58;102302.38;;;16.67;70.12
69574;BME280;62840;52.366;5.980;2023-08-21T06:04:24;102301.28;;;16.69;70.32
69574;BME280;62840;52.366;5.980;2023-08-21T06:06:50;102300.19;;;16.72;69.89
69574;BME280;62840;52.366;5.980;2023-08-21T06:09:16;102307.00;;;16.76;70.45
69574;BME280;62840;52.366;5.980;2023-08-21T06:11:44;102308.44;;;16.80;70.21
69574;BME280;62840;52.366;5.980;2023-08-21T06:14:10;102309.94;;;16.84;70.30
69574;BME280;62840;52.366;5.980;2023-08-21T06:16:35;102307.69;;;16.89;70.17
69574;BME280;62840;52.366;5.980;2023-08-21T06:19:01;102309.84;;;16.96;69.92
69574;BME280;62840;52.366;5.980;2023-08-21T06:21:27;102308.59;;;17.00;70.01
69574;BME280;62840;52.366;5.980;2023-08-21T06:23:53;102306.34;;;17.05;69.68
69574;BME280;62840;52.366;5.980;2023-08-21T06:26:18;102306.78;;;17.10;70.21
69574;BME280;62840;52.366;5.980;2023-08-21T06:28:49;102307.28;;;17.15;69.98
69574;BME280;62840;52.366;5.980;2023-08-21T06:31:16;102308.69;;;17.19;70.38
69574;BME280;62840;52.366;5.980;2023-08-21T06:33:42;102304.75;;;17.23;70.11
69574;BME280;62840;52.366;5.980;2023-08-21T06:36:08;102309.88;;;17.26;70.04
69574;BME280;62840;52.366;5.980;2023-08-21T06:38:33;102311.28;;;17.30;70.22
69574;BME280;62840;52.366;5.980;2023-08-21T06:40:59;102311.88;;;17.34;70.24
69574;BME280;62840;52.366;5.980;2023-08-21T06:43:25;102310.50;;;17.40;70.19
69574;BME280;62840;52.366;5.980;2023-08-21T06:45:53;102301.13;;;17.44;70.46
69574;BME280;62840;52.366;5.980;2023-08-21T06:48:19;102298.91;;;17.49;70.17
69574;BME280;62840;52.366;5.980;2023-08-21T06:50:45;102307.44;;;17.54;70.40
69574;BME280;62840;52.366;5.980;2023-08-21T06:53:10;102308.88;;;17.58;70.36
69574;BME280;62840;52.366;5.980;2023-08-21T06:55:36;102306.59;;;17.63;70.55
69574;BME280;62840;52.366;5.980;2023-08-21T06:58:02;102308.03;;;17.67;70.56
69574;BME280;62840;52.366;5.980;2023-08-21T07:00:28;102304.94;;;17.72;70.55
69574;BME280;62840;52.366;5.980;2023-08-21T07:02:56;102304.50;;;17.77;70.42
69574;BME280;62840;52.366;5.980;2023-08-21T07:05:22;102306.69;;;17.83;70.31
69574;BME280;62840;52.366;5.980;2023-08-21T07:07:48;102302.44;;;17.90;70.57
69574;BME280;62840;52.366;5.980;2023-08-21T07:10:14;102311.69;;;17.97;70.54
69574;BME280;62840;52.366;5.980;2023-08-21T07:12:39;102315.53;;;18.04;70.54
69574;BME280;62840;52.366;5.980;2023-08-21T07:15:06;102305.03;;;18.11;70.65
69574;BME280;62840;52.366;5.980;2023-08-21T07:17:33;102320.53;;;18.19;70.52
69574;BME280;62840;52.366;5.980;2023-08-21T07:20:02;102313.56;;;18.26;70.56
69574;BME280;62840;52.366;5.980;2023-08-21T07:22:28;102308.47;;;18.32;70.54
69574;BME280;62840;52.366;5.980;2023-08-21T07:24:54;102310.44;;;18.40;71.10
69574;BME280;62840;52.366;5.980;2023-08-21T07:27:20;102303.47;;;18.47;71.16
69574;BME280;62840;52.366;5.980;2023-08-21T07:29:45;102312.72;;;18.54;71.06
69574;BME280;62840;52.366;5.980;2023-08-21T07:32:11;102304.72;;;18.63;71.24
69574;BME280;62840;52.366;5.980;2023-08-21T07:34:37;102310.31;;;18.71;71.02
69574;BME280;62840;52.366;5.980;2023-08-21T07:37:07;102314.97;;;18.79;71.03
69574;BME280;62840;52.366;5.980;2023-08-21T07:39:33;102316.97;;;18.86;70.62
69574;BME280;62840;52.366;5.980;2023-08-21T07:41:59;102314.69;;;18.91;70.87
69574;BME280;62840;52.366;5.980;2023-08-21T07:44:24;102316.09;;;18.95;70.65
69574;BME280;62840;52.366;5.980;2023-08-21T07:46:50;102310.09;;;19.02;71.00
69574;BME280;62840;52.366;5.980;2023-08-21T07:49:16;102318.31;;;19.10;70.86
69574;BME280;62840;52.366;5.980;2023-08-21T07:51:42;102310.34;;;19.18;70.56
69574;BME280;62840;52.366;5.980;2023-08-21T07:54:10;102311.44;;;19.25;71.08
69574;BME280;62840;52.366;5.980;2023-08-21T07:56:36;102310.88;;;19.31;70.62
69574;BME280;62840;52.366;5.980;2023-08-21T07:59:03;102326.19;;;19.41;70.47
69574;BME280;62840;52.366;5.980;2023-08-21T08:01:28;102320.22;;;19.47;70.75
69574;BME280;62840;52.366;5.980;2023-08-21T08:03:54;102319.59;;;19.53;70.54
69574;BME280;62840;52.366;5.980;2023-08-21T08:06:20;102325.44;;;19.58;70.06
69574;BME280;62840;52.366;5.980;2023-08-21T08:08:45;102320.44;;;19.63;70.03
69574;BME280;62840;52.366;5.980;2023-08-21T08:11:14;102334.03;;;19.71;69.86
69574;BME280;62840;52.366;5.980;2023-08-21T08:13:39;102322.63;;;19.77;69.06
69574;BME280;62840;52.366;5.980;2023-08-21T08:16:05;102326.59;;;19.83;69.08
69574;BME280;62840;52.366;5.980;2023-08-21T08:18:31;102325.97;;;19.89;68.73
69574;BME280;62840;52.366;5.980;2023-08-21T08:20:57;102320.09;;;19.94;68.85
69574;BME280;62840;52.366;5.980;2023-08-21T08:23:22;102326.91;;;19.98;68.71
69574;BME280;62840;52.366;5.980;2023-08-21T08:25:48;102331.03;;;20.02;68.89
69574;BME280;62840;52.366;5.980;2023-08-21T08:28:17;102323.28;;;20.07;68.29
69574;BME280;62840;52.366;5.980;2023-08-21T08:30:43;102335.53;;;20.11;68.78
69574;BME280;62840;52.366;5.980;2023-08-21T08:33:09;102336.91;;;20.15;68.61
69574;BME280;62840;52.366;5.980;2023-08-21T08:35:35;102333.59;;;20.21;68.73
69574;BME280;62840;52.366;5.980;2023-08-21T08:38:00;102332.31;;;20.26;68.52
69574;BME280;62840;52.366;5.980;2023-08-21T08:40:26;102331.97;;;20.29;68.56
69574;BME280;62840;52.366;5.980;2023-08-21T08:42:53;102327.97;;;20.33;68.41
69574;BME280;62840;52.366;5.980;2023-08-21T08:45:28;102326.31;;;20.40;68.31
69574;BME280;62840;52.366;5.980;2023-08-21T08:47:55;102320.63;;;20.43;68.71
69574;BME280;62840;52.366;5.980;2023-08-21T08:50:23;102328.28;;;20.48;68.12
69574;BME280;62840;52.366;5.980;2023-08-21T08:52:50;102334.94;;;20.53;67.81
69574;BME280;62840;52.366;5.980;2023-08-21T08:55:15;102338.03;;;20.58;67.35
69574;BME280;62840;52.366;5.980;2023-08-21T08:57:41;102336.88;;;20.61;67.29
69574;BME280;62840;52.366;5.980;2023-08-21T09:00:08;102346.38;;;20.65;67.16
69574;BME280;62840;52.366;5.980;2023-08-21T09:02:37;102331.66;;;20.68;67.13
69574;BME280;62840;52.366;5.980;2023-08-21T09:05:04;102340.16;;;20.73;67.10
69574;BME280;62840;52.366;5.980;2023-08-21T09:07:30;102337.16;;;20.76;67.05
69574;BME280;62840;52.366;5.980;2023-08-21T09:09:56;102335.84;;;20.80;67.03
69574;BME280;62840;52.366;5.980;2023-08-21T09:12:22;102337.22;;;20.84;66.64
69574;BME280;62840;52.366;5.980;2023-08-21T09:14:48;102332.19;;;20.89;66.57
69574;BME280;62840;52.366;5.980;2023-08-21T09:17:14;102324.41;;;20.94;66.06
69574;BME280;62840;52.366;5.980;2023-08-21T09:19:43;102324.78;;;20.99;66.16
69574;BME280;62840;52.366;5.980;2023-08-21T09:22:11;102327.19;;;21.02;66.02
69574;BME280;62840;52.366;5.980;2023-08-21T09:24:37;102320.44;;;21.07;65.76
69574;BME280;62840;52.366;5.980;2023-08-21T09:27:04;102324.50;;;21.11;65.37
69574;BME280;62840;52.366;5.980;2023-08-21T09:29:38;102328.59;;;21.15;65.41
69574;BME280;62840;52.366;5.980;2023-08-21T09:32:04;102331.69;;;21.20;65.29
69574;BME280;62840;52.366;5.980;2023-08-21T09:34:33;102330.56;;;21.22;65.25
69574;BME280;62840;52.366;5.980;2023-08-21T09:37:04;102323.97;;;21.25;65.02
69574;BME280;62840;52.366;5.980;2023-08-21T09:39:32;102321.94;;;21.27;65.02
69574;BME280;62840;52.366;5.980;2023-08-21T09:41:59;102320.59;;;21.31;65.35
69574;BME280;62840;52.366;5.980;2023-08-21T09:44:26;102330.09;;;21.35;65.06
69574;BME280;62840;52.366;5.980;2023-08-21T09:46:52;102324.38;;;21.38;64.50
69574;BME280;62840;52.366;5.980;2023-08-21T09:49:18;102320.28;;;21.42;64.76
69574;BME280;62840;52.366;5.980;2023-08-21T09:51:46;102325.41;;;21.45;64.79
69574;BME280;62840;52.366;5.980;2023-08-21T09:54:14;102313.91;;;21.52;64.21
69574;BME280;62840;52.366;5.980;2023-08-21T09:56:41;102306.13;;;21.57;64.35
69574;BME280;62840;52.366;5.980;2023-08-21T09:59:08;102300.34;;;21.60;64.41
69574;BME280;62840;52.366;5.980;2023-08-21T10:01:35;102292.56;;;21.65;64.33
69574;BME280;62840;52.366;5.980;2023-08-21T10:04:04;102307.50;;;21.69;64.68
69574;BME280;62840;52.366;5.980;2023-08-21T10:06:32;102288.88;;;21.74;64.08
69574;BME280;62840;52.366;5.980;2023-08-21T10:08:58;102296.34;;;21.80;64.33
69574;BME280;62840;52.366;5.980;2023-08-21T10:11:28;102299.44;;;21.85;64.23
69574;BME280;62840;52.366;5.980;2023-08-21T10:13:55;102292.47;;;21.91;64.49
69574;BME280;62840;52.366;5.980;2023-08-21T10:16:22;102300.97;;;21.96;63.94
69574;BME280;62840;52.366;5.980;2023-08-21T10:18:48;102287.78;;;22.01;63.73
69574;BME280;62840;52.366;5.980;2023-08-21T10:21:19;102286.25;;;22.07;63.62
69574;BME280;62840;52.366;5.980;2023-08-21T10:23:47;102287.63;;;22.11;63.37
69574;BME280;62840;52.366;5.980;2023-08-21T10:26:15;102279.81;;;22.16;63.39
69574;BME280;62840;52.366;5.980;2023-08-21T10:28:54;102280.13;;;22.21;63.19
69574;BME280;62840;52.366;5.980;2023-08-21T10:31:27;102283.38;;;22.25;63.38
69574;BME280;62840;52.366;5.980;2023-08-21T10:34:01;102279.31;;;22.29;63.25
69574;BME280;62840;52.366;5.980;2023-08-21T10:39:29;102277.44;;;22.38;62.33
69574;BME280;62840;52.366;5.980;2023-08-21T10:41:55;102273.38;;;22.42;62.74
69574;BME280;62840;52.366;5.980;2023-08-21T10:44:47;102277.25;;;22.47;61.37
69574;BME280;62840;52.366;5.980;2023-08-21T10:47:16;102281.50;;;22.50;62.11
69574;BME280;62840;52.366;5.980;2023-08-21T10:49:44;102288.31;;;22.54;61.81
69574;BME280;62840;52.366;5.980;2023-08-21T10:52:11;102286.94;;;22.58;61.16
69574;BME280;62840;52.366;5.980;2023-08-21T10:54:45;102293.56;;;22.64;60.78
69574;BME280;62840;52.366;5.980;2023-08-21T10:57:11;102290.69;;;22.65;60.83
69574;BME280;62840;52.366;5.980;2023-08-21T10:59:49;102291.03;;;22.62;60.63
69574;BME280;62840;52.366;5.980;2023-08-21T11:02:18;102293.06;;;22.60;60.88
69574;BME280;62840;52.366;5.980;2023-08-21T11:04:44;102296.47;;;22.62;60.55
69574;BME280;62840;52.366;5.980;2023-08-21T11:07:10;102298.16;;;22.63;60.52
69574;BME280;62840;52.366;5.980;2023-08-21T11:09:36;102288.31;;;22.62;60.45
69574;BME280;62840;52.366;5.980;2023-08-21T11:12:05;102290.69;;;22.65;59.84
69574;BME280;62840;52.366;5.980;2023-08-21T11:14:33;102288.28;;;22.70;59.90
69574;BME280;62840;52.366;5.980;2023-08-21T11:17:02;102285.94;;;22.76;59.60
69574;BME280;62840;52.366;5.980;2023-08-21T11:19:30;102293.25;;;22.83;58.49
69574;BME280;62840;52.366;5.980;2023-08-21T11:21:56;102287.97;;;22.90;57.94
69574;BME280;62840;52.366;5.980;2023-08-21T11:24:21;102283.69;;;22.96;57.72
69574;BME280;62840;52.366;5.980;2023-08-21T11:26:47;102286.91;;;22.99;58.08
69574;BME280;62840;52.366;5.980;2023-08-21T11:29:13;102285.53;;;23.03;58.35
69574;BME280;62840;52.366;5.980;2023-08-21T11:31:39;102290.31;;;23.09;58.18
69574;BME280;62840;52.366;5.980;2023-08-21T11:34:07;102280.22;;;23.18;58.00
69574;BME280;62840;52.366;5.980;2023-08-21T11:36:33;102269.47;;;23.25;57.36
69574;BME280;62840;52.366;5.980;2023-08-21T11:39:00;102276.78;;;23.33;57.76
69574;BME280;62840;52.366;5.980;2023-08-21T11:41:27;102269.75;;;23.38;57.56
69574;BME280;62840;52.366;5.980;2023-08-21T11:43:53;102275.19;;;23.46;57.92
69574;BME280;62840;52.366;5.980;2023-08-21T11:46:26;102270.06;;;23.51;56.45
69574;BME280;62840;52.366;5.980;2023-08-21T11:48:52;102269.72;;;23.55;56.50
69574;BME280;62840;52.366;5.980;2023-08-21T11:51:20;102271.06;;;23.59;56.41
69574;BME280;62840;52.366;5.980;2023-08-21T11:53:47;102266.59;;;23.66;56.44
69574;BME280;62840;52.366;5.980;2023-08-21T11:56:14;102264.19;;;23.71;56.36
69574;BME280;62840;52.366;5.980;2023-08-21T11:58:42;102265.16;;;23.78;56.80
69574;BME280;62840;52.366;5.980;2023-08-21T12:01:09;102270.91;;;23.83;56.34
69574;BME280;62840;52.366;5.980;2023-08-21T12:03:36;102269.53;;;23.87;56.07
69574;BME280;62840;52.366;5.980;2023-08-21T12:06:05;102266.13;;;23.85;55.94
69574;BME280;62840;52.366;5.980;2023-08-21T12:08:34;102267.50;;;23.81;55.71
69574;BME280;62840;52.366;5.980;2023-08-21T12:11:00;102255.97;;;23.79;56.42
69574;BME280;62840;52.366;5.980;2023-08-21T12:13:26;102259.34;;;23.81;56.56
69574;BME280;62840;52.366;5.980;2023-08-21T12:15:52;102259.00;;;23.84;56.59
69574;BME280;62840;52.366;5.980;2023-08-21T12:18:18;102255.22;;;23.85;56.59
69574;BME280;62840;52.366;5.980;2023-08-21T12:20:43;102254.22;;;23.86;56.70
69574;BME280;62840;52.366;5.980;2023-08-21T12:23:09;102254.88;;;23.88;56.19
69574;BME280;62840;52.366;5.980;2023-08-21T12:25:38;102256.19;;;23.92;56.45
69574;BME280;62840;52.366;5.980;2023-08-21T12:28:05;102253.44;;;24.01;56.06
69574;BME280;62840;52.366;5.980;2023-08-21T12:30:31;102258.16;;;24.07;55.89
69574;BME280;62840;52.366;5.980;2023-08-21T12:32:57;102255.72;;;24.12;55.97
69574;BME280;62840;52.366;5.980;2023-08-21T12:35:22;102263.91;;;24.12;55.80
69574;BME280;62840;52.366;5.980;2023-08-21T12:37:48;102268.34;;;24.13;55.60
69574;BME280;62840;52.366;5.980;2023-08-21T12:40:14;102259.63;;;24.18;55.78
69574;BME280;62840;52.366;5.980;2023-08-21T12:42:42;102254.66;;;24.21;55.37
69574;BME280;62840;52.366;5.980;2023-08-21T12:45:09;102258.06;;;24.23;55.50
69574;BME280;62840;52.366;5.980;2023-08-21T12:47:35;102253.94;;;24.27;55.50
69574;BME280;62840;52.366;5.980;2023-08-21T12:50:01;102255.94;;;24.33;55.46
69574;BME280;62840;52.366;5.980;2023-08-21T12:52:26;102250.75;;;24.39;55.43